Time;durP1;ratioP1;P1;durP2;ratioP2;P2;SDS_P1;SDS_P2;PMS_P1;PMS_P2;Temp;Humidity;BMP_temperature;BMP_pressure;BME280_temperature;BME280_humidity;BME280_pressure;Samples;Min_cycle;Max_cycle;Signal;HPM_P1;HPM_P2
2021/09/04 00:01:02;;;;;;;0.10;0.10;;;;;;;12.19;87.84;102081.59;10545600;22;20510;-61
2021/09/04 00:06:03;;;;;;;0.10;0.10;;;;;;;12.30;87.22;102077.06;10516857;28;20020;-62
2021/09/04 00:11:03;;;;;;;0.10;0.10;;;;;;;12.38;86.88;102071.88;10492511;28;20029;-61
2021/09/04 00:16:04;;;;;;;0.10;0.10;;;;;;;12.45;87.47;102075.69;10463855;28;20259;-61
2021/09/04 00:21:04;;;;;;;0.00;0.00;;;;;;;12.53;86.33;102074.97;10449181;28;20032;-62
2021/09/04 00:26:04;;;;;;;0.10;0.10;;;;;;;12.58;86.69;102078.06;10456154;28;20036;-62
2021/09/04 00:31:05;;;;;;;0.10;0.10;;;;;;;12.62;86.29;102084.81;10498145;28;20028;-62
2021/09/04 00:36:05;;;;;;;0.10;0.10;;;;;;;12.68;86.41;102076.22;10503882;28;20023;-62
2021/09/04 00:41:05;;;;;;;0.10;0.10;;;;;;;12.74;86.31;102072.13;10532460;28;20042;-63
2021/09/04 00:46:07;;;;;;;0.10;0.10;;;;;;;12.78;85.93;102076.22;10505355;28;20025;-63
2021/09/04 00:51:08;;;;;;;0.10;0.10;;;;;;;12.81;86.25;102075.94;10487126;28;20467;-62
2021/09/04 00:56:12;;;;;;;0.10;0.10;;;;;;;12.84;85.80;102079.16;10513432;28;20345;-62
2021/09/04 01:01:12;;;;;;;0.08;0.08;;;;;;;12.88;86.16;102071.69;10500863;28;20471;-63
2021/09/04 01:06:15;;;;;;;0.00;0.00;;;;;;;12.87;86.16;102062.81;10489509;28;20219;-63
2021/09/04 01:11:16;;;;;;;0.10;0.10;;;;;;;12.92;85.87;102065.09;10489436;28;20475;-64
2021/09/04 01:16:16;;;;;;;0.10;0.10;;;;;;;12.96;85.75;102058.44;10493304;28;20427;-63
2021/09/04 01:21:17;;;;;;;0.10;0.10;;;;;;;12.98;86.01;102055.63;10492976;28;20100;-63
2021/09/04 01:26:17;;;;;;;0.10;0.10;;;;;;;13.00;85.46;102054.50;10508447;28;20282;-62
2021/09/04 01:31:17;;;;;;;0.10;0.10;;;;;;;13.01;85.62;102047.31;10489038;28;20429;-63
2021/09/04 01:36:30;;;;;;;0.10;0.10;;;;;;;13.03;86.22;102058.69;10483385;28;20028;-63
2021/09/04 01:41:30;;;;;;;0.10;0.10;;;;;;;13.05;85.76;102056.72;10495874;28;20395;-63
2021/09/04 01:46:31;;;;;;;0.08;0.08;;;;;;;13.10;85.04;102060.66;10488846;28;20032;-63
2021/09/04 01:51:31;;;;;;;0.00;0.00;;;;;;;13.14;85.12;102055.84;10498260;28;20021;-62
2021/09/04 01:56:31;;;;;;;0.10;0.10;;;;;;;13.17;84.61;102049.38;10491172;28;20029;-60
2021/09/04 02:01:32;;;;;;;0.10;0.10;;;;;;;13.21;84.34;102053.47;10507660;28;20387;-63
2021/09/04 02:06:32;;;;;;;0.10;0.10;;;;;;;13.31;81.54;102043.56;10495821;28;20021;-63
2021/09/04 02:11:32;;;;;;;0.10;0.10;;;;;;;13.43;80.54;102034.34;10495524;28;20462;-63
2021/09/04 02:16:33;;;;;;;0.10;0.10;;;;;;;13.52;79.62;102036.13;10518592;28;20024;-63
2021/09/04 02:21:33;;;;;;;0.10;0.10;;;;;;;13.51;79.12;102023.75;10503787;28;20024;-63
2021/09/04 02:26:33;;;;;;;0.10;0.10;;;;;;;13.51;79.02;102023.75;10459125;28;20102;-61
2021/09/04 02:31:34;;;;;;;0.03;0.03;;;;;;;13.50;79.58;102019.41;10533514;28;20077;-63
2021/09/04 02:36:34;;;;;;;0.10;0.10;;;;;;;13.48;80.33;102017.88;10511166;28;20021;-62
2021/09/04 02:41:34;;;;;;;0.00;0.00;;;;;;;13.48;80.63;102023.22;10516443;28;20020;-63
2021/09/04 02:46:35;;;;;;;0.10;0.10;;;;;;;13.48;80.73;102016.03;10536004;28;20028;-63
2021/09/04 02:51:37;;;;;;;0.00;0.00;;;;;;;13.48;81.32;102001.81;10535817;28;20054;-63
2021/09/04 02:56:37;;;;;;;0.10;0.10;;;;;;;13.47;82.10;102013.50;10510543;28;20038;-63
2021/09/04 03:01:38;;;;;;;0.10;0.10;;;;;;;13.45;82.16;102010.97;10475056;28;20115;-63
2021/09/04 03:06:38;;;;;;;0.10;0.10;;;;;;;13.45;81.31;102010.97;10490538;28;20283;-63
2021/09/04 03:11:38;;;;;;;0.10;0.10;;;;;;;13.47;81.72;102008.16;10492085;28;20028;-63
2021/09/04 03:16:39;;;;;;;0.10;0.10;;;;;;;13.49;82.07;102011.50;10485345;28;20741;-63
2021/09/04 03:21:39;;;;;;;0.10;0.10;;;;;;;13.50;81.78;102022.09;10493195;28;20452;-62
2021/09/04 03:26:39;;;;;;;0.10;0.10;;;;;;;13.54;81.69;102023.47;10485776;28;20025;-62
2021/09/04 03:31:39;;;;;;;0.10;0.10;;;;;;;13.56;81.88;102021.47;10487193;28;20391;-60
2021/09/04 03:36:40;;;;;;;0.10;0.10;;;;;;;13.60;82.24;102030.06;10491877;28;20036;-64
2021/09/04 03:41:40;;;;;;;0.10;0.10;;;;;;;13.61;82.76;102030.88;10486453;28;20458;-64
2021/09/04 03:46:40;;;;;;;0.00;0.00;;;;;;;13.61;82.73;102022.84;10506970;28;20500;-61
2021/09/04 03:51:42;;;;;;;0.10;0.10;;;;;;;13.59;82.64;102012.31;10472723;28;20032;-61
2021/09/04 03:56:42;;;;;;;0.10;0.10;;;;;;;13.60;82.81;102019.34;10449439;28;20036;-62
2021/09/04 04:01:42;;;;;;;0.10;0.10;;;;;;;13.59;81.88;102021.19;10450149;28;20037;-63
2021/09/04 04:06:43;;;;;;;0.10;0.10;;;;;;;13.63;81.85;102018.19;10481018;28;20021;-62
2021/09/04 04:11:43;;;;;;;0.10;0.10;;;;;;;13.63;81.67;102018.19;10449570;28;20112;-63
2021/09/04 04:16:43;;;;;;;0.00;0.00;;;;;;;13.62;82.79;102016.53;10481685;28;20103;-63
2021/09/04 04:21:44;;;;;;;0.10;0.10;;;;;;;13.58;82.94;102018.63;10503153;28;20390;-62
2021/09/04 04:26:44;;;;;;;0.10;0.10;;;;;;;13.58;83.36;102018.63;10515353;28;20021;-64
2021/09/04 04:31:44;;;;;;;0.10;0.10;;;;;;;13.58;83.04;102014.16;10465670;28;20021;-64
2021/09/04 04:36:44;;;;;;;0.10;0.10;;;;;;;13.59;82.80;102023.03;10482290;28;20032;-63
2021/09/04 04:41:45;;;;;;;0.10;0.10;;;;;;;13.59;82.84;102025.69;10467983;28;20271;-63
2021/09/04 04:46:45;;;;;;;0.10;0.10;;;;;;;13.59;82.93;102026.53;10470288;28;20028;-64
2021/09/04 04:51:45;;;;;;;0.10;0.10;;;;;;;13.61;83.36;102025.53;10498008;28;20040;-63
2021/09/04 04:56:46;;;;;;;0.10;0.10;;;;;;;13.61;83.82;102036.25;10489722;28;20024;-63
2021/09/04 05:01:46;;;;;;;0.10;0.10;;;;;;;13.61;82.95;102031.72;10489250;28;20271;-62
2021/09/04 05:06:46;;;;;;;0.10;0.10;;;;;;;13.63;82.94;102035.09;10471549;28;20039;-63
2021/09/04 05:11:47;;;;;;;0.10;0.10;;;;;;;13.68;82.63;102023.97;10531138;28;20443;-63
2021/09/04 05:16:47;;;;;;;0.10;0.10;;;;;;;13.72;82.92;102031.53;10531610;28;20048;-64
2021/09/04 05:21:48;;;;;;;0.10;0.10;;;;;;;13.76;82.75;102040.13;10455858;28;20296;-63
2021/09/04 05:26:48;;;;;;;0.10;0.10;;;;;;;13.80;82.92;102041.50;10447708;28;20025;-64
2021/09/04 05:31:48;;;;;;;0.10;0.10;;;;;;;13.86;83.74;102037.38;10469013;28;20024;-64
2021/09/04 05:36:48;;;;;;;0.10;0.10;;;;;;;13.91;83.56;102038.59;10492581;28;20149;-64
2021/09/04 05:41:49;;;;;;;0.10;0.10;;;;;;;13.97;82.28;102032.63;10505156;28;20024;-62
2021/09/04 05:46:49;;;;;;;0.10;0.10;;;;;;;14.03;82.30;102026.66;10504357;28;20664;-64
2021/09/04 05:51:49;;;;;;;0.00;0.00;;;;;;;14.12;81.23;102026.75;10497043;28;20396;-63
2021/09/04 05:56:50;;;;;;;0.10;0.10;;;;;;;14.21;80.73;102029.34;10495962;28;20028;-62
2021/09/04 06:01:50;;;;;;;0.10;0.10;;;;;;;14.29;80.64;102025.06;10505137;22;20568;-64
2021/09/04 06:06:50;;;;;;;0.10;0.10;;;;;;;14.40;80.19;102032.88;10498504;28;20467;-64
2021/09/04 06:11:50;;;;;;;0.10;0.10;;;;;;;14.48;78.81;102025.72;10498929;28;20031;-64
2021/09/04 06:16:51;;;;;;;0.00;0.00;;;;;;;14.58;78.16;102031.03;10498389;28;20066;-64
2021/09/04 06:21:51;;;;;;;0.10;0.10;;;;;;;14.75;77.36;102028.44;10490911;28;20084;-64
2021/09/04 06:26:51;;;;;;;0.10;0.10;;;;;;;14.84;73.92;102031.03;10456615;28;20021;-64
2021/09/04 06:31:52;;;;;;;0.10;0.10;;;;;;;14.96;72.27;102036.16;10508180;28;20038;-64
2021/09/04 06:36:52;;;;;;;0.10;0.10;;;;;;;15.05;72.05;102021.78;10531400;28;20585;-64
2021/09/04 06:41:53;;;;;;;0.10;0.10;;;;;;;15.15;71.92;102020.66;10497643;28;20020;-64
2021/09/04 06:46:53;;;;;;;0.00;0.00;;;;;;;15.21;70.32;102021.84;10496660;28;20082;-64
2021/09/04 06:51:53;;;;;;;0.10;0.10;;;;;;;15.27;70.13;102025.72;10497050;28;20033;-64
2021/09/04 06:56:54;;;;;;;0.10;0.10;;;;;;;15.34;72.57;102024.94;10496528;28;20029;-64
2021/09/04 07:01:55;;;;;;;0.10;0.10;;;;;;;15.46;71.99;102025.47;10496299;28;20399;-63
2021/09/04 07:06:55;;;;;;;0.10;0.10;;;;;;;15.56;70.85;102034.25;10496002;28;20498;-63
2021/09/04 07:11:55;;;;;;;0.10;0.10;;;;;;;15.73;70.79;102032.47;10495681;28;20517;-64
2021/09/04 07:16:55;;;;;;;0.10;0.10;;;;;;;15.96;71.49;102039.91;10495670;28;20024;-64
2021/09/04 07:21:56;;;;;;;0.00;0.00;;;;;;;16.26;71.20;102041.13;10464026;28;20020;-64
2021/09/04 07:26:56;;;;;;;0.10;0.10;;;;;;;16.59;67.62;102039.28;10529711;28;20031;-64
2021/09/04 07:31:56;;;;;;;0.10;0.10;;;;;;;16.87;66.70;102039.81;10495173;28;20024;-64
2021/09/04 07:36:57;;;;;;;0.10;0.10;;;;;;;17.10;66.00;102034.50;10494942;28;20100;-63
2021/09/04 07:41:57;;;;;;;0.10;0.10;;;;;;;17.08;62.34;102033.03;10494550;28;20466;-64
2021/09/04 07:46:57;;;;;;;0.10;0.10;;;;;;;17.42;61.61;102035.41;10494495;28;20058;-65
2021/09/04 07:51:58;;;;;;;0.05;0.05;;;;;;;17.93;60.12;102026.94;10494026;28;20273;-64
2021/09/04 07:56:58;;;;;;;0.00;0.00;;;;;;;18.29;60.66;102037.94;10493061;28;20050;-65
2021/09/04 08:01:58;;;;;;;0.00;0.00;;;;;;;18.21;61.46;102035.31;10493710;28;20460;-65
2021/09/04 08:06:59;;;;;;;0.10;0.10;;;;;;;19.43;58.62;102041.38;10493600;28;20097;-65
2021/09/04 08:11:59;;;;;;;0.00;0.00;;;;;;;20.03;56.19;102042.94;10494006;28;20028;-65
2021/09/04 08:16:59;;;;;;;0.10;0.10;;;;;;;20.44;55.55;102042.28;10494073;28;20013;-64
2021/09/04 08:22:02;;;;;;;0.10;0.10;;;;;;;21.24;53.99;102034.75;10475406;28;20025;-65
2021/09/04 08:27:03;;;;;;;0.10;0.10;;;;;;;22.43;52.95;102039.75;10452269;28;20025;-65
2021/09/04 08:32:03;;;;;;;0.00;0.00;;;;;;;21.72;52.64;102045.63;10473883;28;20398;-65
2021/09/04 08:37:04;;;;;;;0.00;0.00;;;;;;;20.76;55.11;102062.56;10493253;28;20021;-65
2021/09/04 08:42:05;;;;;;;0.10;0.10;;;;;;;20.49;55.75;102061.50;10492865;28;20020;-65
2021/09/04 08:47:05;;;;;;;0.10;0.10;;;;;;;20.25;56.00;102057.31;10484683;28;20060;-65
2021/09/04 08:52:06;;;;;;;0.00;0.00;;;;;;;20.43;57.88;102069.56;10451380;28;20029;-66
2021/09/04 08:57:06;;;;;;;0.00;0.00;;;;;;;20.52;55.48;102069.25;10464646;28;20013;-65
2021/09/04 09:02:11;;;;;;;0.00;0.00;;;;;;;20.19;56.76;102068.91;10492532;28;20120;-66
2021/09/04 09:07:12;;;;;;;0.00;0.00;;;;;;;19.74;61.38;102081.72;10496324;28;20035;-65
2021/09/04 09:12:12;;;;;;;0.00;0.00;;;;;;;19.27;60.59;102079.41;10501091;28;20383;-65
2021/09/04 09:17:14;;;;;;;0.00;0.00;;;;;;;18.80;61.13;102083.28;10501458;28;20462;-65
2021/09/04 09:22:16;;;;;;;0.10;0.10;;;;;;;18.51;62.37;102088.38;10500684;28;20165;-64
2021/09/04 09:27:17;;;;;;;0.10;0.10;;;;;;;18.32;64.47;102092.41;10500871;28;20036;-65
2021/09/04 09:32:17;;;;;;;0.05;0.05;;;;;;;18.03;65.30;102089.53;10500269;28;20471;-64
2021/09/04 09:37:17;;;;;;;0.10;0.10;;;;;;;17.96;66.14;102100.19;10499711;28;20028;-65
2021/09/04 09:42:19;;;;;;;0.00;0.00;;;;;;;18.21;64.69;102097.34;10500045;28;20021;-65
2021/09/04 09:47:19;;;;;;;0.00;0.00;;;;;;;18.24;64.08;102105.94;10499862;28;20025;-64
2021/09/04 09:52:19;;;;;;;0.10;0.10;;;;;;;18.45;64.61;102105.28;10499297;28;20025;-65
2021/09/04 09:57:20;;;;;;;0.10;0.10;;;;;;;18.87;64.58;102089.59;10499055;28;20043;-65
2021/09/04 10:02:20;;;;;;;0.10;0.10;;;;;;;18.53;64.86;102097.13;10498957;28;20031;-65
2021/09/04 10:07:21;;;;;;;0.10;0.10;;;;;;;18.28;65.38;102095.63;10498478;28;20036;-65
2021/09/04 10:12:22;;;;;;;0.10;0.10;;;;;;;18.14;66.39;102099.91;10499073;28;20017;-65
2021/09/04 10:17:22;;;;;;;0.10;0.10;;;;;;;18.61;66.92;102103.47;10498036;28;20025;-64
2021/09/04 10:22:23;;;;;;;0.00;0.00;;;;;;;18.68;64.83;102112.53;10498234;28;20399;-65
2021/09/04 10:27:35;;;;;;;0.00;0.00;;;;;;;18.10;66.23;102104.84;10497985;28;20029;-64
2021/09/04 10:32:35;;;;;;;0.10;0.10;;;;;;;17.81;66.60;102115.44;10498637;28;20035;-64
2021/09/04 10:37:44;;;;;;;0.03;0.03;;;;;;;17.74;66.91;102111.72;10497600;28;20509;-64
2021/09/04 10:42:44;;;;;;;0.00;0.00;;;;;;;17.81;65.94;102110.88;10497993;28;20020;-64
2021/09/04 10:47:47;;;;;;;0.00;0.00;;;;;;;17.80;64.16;102111.91;10497053;28;20016;-64
2021/09/04 10:52:52;;;;;;;0.10;0.10;;;;;;;17.97;64.14;102101.03;10479057;28;20490;-64
2021/09/04 10:58:13;;;;;;;0.00;0.00;;;;;;;18.32;63.99;102097.78;10497362;28;20123;-64
2021/09/04 11:03:18;;;;;;;0.10;0.10;;;;;;;18.44;62.42;102091.94;10496421;28;20032;-65
2021/09/04 11:08:18;;;;;;;0.10;0.10;;;;;;;18.72;62.24;102079.56;10496708;28;20036;-65
2021/09/04 11:13:19;;;;;;;0.10;0.10;;;;;;;18.88;63.08;102075.94;10496073;28;20028;-65
2021/09/04 11:18:20;;;;;;;0.10;0.10;;;;;;;18.78;62.66;102086.13;10496653;28;20104;-65
2021/09/04 11:23:28;;;;;;;0.00;0.00;;;;;;;18.79;61.96;102090.50;10496183;28;20028;-65
2021/09/04 11:28:29;;;;;;;0.10;0.10;;;;;;;18.80;61.33;102086.81;10495509;28;20048;-63
2021/09/04 11:33:30;;;;;;;0.10;0.10;;;;;;;18.72;61.19;102100.34;10495154;28;20020;-65
2021/09/04 11:38:31;;;;;;;0.00;0.00;;;;;;;19.03;61.18;102085.91;10495796;28;20020;-64
2021/09/04 11:43:31;;;;;;;0.00;0.00;;;;;;;19.17;56.90;102085.09;10476829;28;20024;-65
2021/09/04 11:48:31;;;;;;;0.10;0.10;;;;;;;19.36;57.47;102079.13;10494516;28;20483;-65
2021/09/04 11:53:32;;;;;;;0.00;0.00;;;;;;;19.38;57.34;102081.66;10494782;28;20166;-64
2021/09/04 11:58:32;;;;;;;0.00;0.00;;;;;;;19.22;62.32;102077.25;10494245;28;20342;-65
2021/09/04 12:03:34;;;;;;;0.00;0.00;;;;;;;18.90;61.63;102084.66;10515349;22;20048;-63
2021/09/04 12:08:36;;;;;;;0.00;0.00;;;;;;;18.80;62.20;102089.50;10526368;28;20489;-63
2021/09/04 12:13:38;;;;;;;0.10;0.10;;;;;;;18.76;63.80;102098.97;10497126;28;20020;-63
2021/09/04 12:18:41;;;;;;;0.10;0.10;;;;;;;18.72;62.83;102087.66;10493443;28;20031;-64
2021/09/04 12:23:46;;;;;;;0.00;0.00;;;;;;;18.87;63.19;102095.00;10496941;28;20040;-64
2021/09/04 12:28:47;;;;;;;0.10;0.10;;;;;;;18.96;60.55;102093.91;10516611;28;20059;-62
2021/09/04 12:33:50;;;;;;;0.10;0.10;;;;;;;19.02;63.25;102101.25;10514018;28;20028;-63
2021/09/04 12:38:53;;;;;;;0.00;0.00;;;;;;;18.94;61.34;102096.78;10534342;28;20081;-63
2021/09/04 12:43:59;;;;;;;0.10;0.10;;;;;;;18.94;62.31;102102.19;10528777;28;20197;-63
2021/09/04 12:49:18;;;;;;;0.10;0.10;;;;;;;18.96;60.91;102100.13;10492747;28;20396;-63
2021/09/04 12:54:28;;;;;;;0.00;0.00;;;;;;;19.13;62.87;102092.69;10520266;28;20047;-63
2021/09/04 12:59:28;;;;;;;0.08;0.08;;;;;;;19.04;60.42;102111.88;10533649;28;20502;-63
2021/09/04 13:04:28;;;;;;;0.10;0.10;;;;;;;18.97;61.60;102095.59;10533018;28;20024;-63
2021/09/04 13:09:28;;;;;;;0.10;0.10;;;;;;;18.94;62.77;102090.56;10532189;28;20028;-64
2021/09/04 13:14:29;;;;;;;0.10;0.10;;;;;;;19.00;61.31;102085.25;10532699;28;20421;-63
2021/09/04 13:19:29;;;;;;;0.10;0.10;;;;;;;19.08;62.45;102080.78;10517342;28;20391;-64
2021/09/04 13:24:30;;;;;;;0.00;0.00;;;;;;;18.88;61.21;102081.34;10490642;28;20441;-63
2021/09/04 13:29:32;;;;;;;0.00;0.00;;;;;;;18.91;59.76;102082.84;10504909;28;20605;-64
2021/09/04 13:34:32;;;;;;;0.00;0.00;;;;;;;19.08;59.49;102075.38;10516503;28;20023;-64
2021/09/04 13:39:33;;;;;;;0.10;0.10;;;;;;;19.19;57.76;102077.63;10490235;28;20016;-64
2021/09/04 13:44:34;;;;;;;0.00;0.00;;;;;;;19.24;58.00;102077.91;10530492;28;20032;-63
2021/09/04 13:49:34;;;;;;;0.00;0.00;;;;;;;19.33;60.68;102082.19;10507576;28;20021;-63
2021/09/04 13:54:35;;;;;;;0.00;0.00;;;;;;;19.41;59.04;102078.56;10494112;28;20021;-63
2021/09/04 13:59:35;;;;;;;0.00;0.00;;;;;;;19.36;59.14;102067.47;10502583;28;20035;-63
2021/09/04 14:04:35;;;;;;;0.05;0.05;;;;;;;19.39;58.77;102067.09;10502419;28;20467;-63
2021/09/04 14:09:38;;;;;;;0.10;0.10;;;;;;;19.21;59.79;102062.91;10497905;28;20016;-63
2021/09/04 14:14:38;;;;;;;0.00;0.00;;;;;;;19.16;58.60;102069.91;10501641;28;20066;-63
2021/09/04 14:19:39;;;;;;;0.10;0.10;;;;;;;19.30;58.24;102057.41;10497544;28;20441;-63
2021/09/04 14:24:39;;;;;;;0.00;0.00;;;;;;;19.19;59.09;102056.03;10496833;28;20506;-63
2021/09/04 14:29:39;;;;;;;0.10;0.10;;;;;;;19.22;59.34;102058.34;10502641;28;20083;-63
2021/09/04 14:34:42;;;;;;;0.00;0.00;;;;;;;19.16;58.96;102061.78;10528477;28;20016;-62
2021/09/04 14:39:42;;;;;;;0.00;0.00;;;;;;;19.32;59.69;102060.78;10536211;28;20061;-62
2021/09/04 14:44:42;;;;;;;0.10;0.10;;;;;;;19.49;57.42;102062.25;10538034;28;20550;-62
2021/09/04 14:49:44;;;;;;;0.10;0.10;;;;;;;19.60;58.03;102056.34;10538452;28;20051;-63
2021/09/04 14:54:44;;;;;;;0.10;0.10;;;;;;;19.42;56.00;102054.03;10537419;28;20023;-63
2021/09/04 14:59:45;;;;;;;0.10;0.10;;;;;;;19.21;61.15;102056.69;10503036;28;20360;-63
2021/09/04 15:04:45;;;;;;;0.10;0.10;;;;;;;19.10;58.45;102049.03;10519389;28;20286;-62
2021/09/04 15:09:45;;;;;;;0.00;0.00;;;;;;;19.08;59.45;102051.06;10537511;28;20024;-63
2021/09/04 15:14:45;;;;;;;0.10;0.10;;;;;;;19.12;59.29;102057.81;10537308;28;20256;-62
2021/09/04 15:19:46;;;;;;;0.10;0.10;;;;;;;19.13;59.53;102051.38;10535583;28;20027;-63
2021/09/04 15:24:46;;;;;;;0.00;0.00;;;;;;;19.14;60.56;102047.63;10533624;28;20028;-63
2021/09/04 15:29:46;;;;;;;0.10;0.10;;;;;;;19.19;59.17;102056.03;10536268;28;20055;-63
2021/09/04 15:34:47;;;;;;;0.10;0.10;;;;;;;19.20;61.29;102046.91;10534470;28;20016;-61
2021/09/04 15:39:47;;;;;;;0.00;0.00;;;;;;;19.24;61.63;102050.91;10530378;28;20024;-62
2021/09/04 15:44:47;;;;;;;0.00;0.00;;;;;;;19.41;60.27;102055.09;10535247;28;20024;-61
2021/09/04 15:49:48;;;;;;;0.00;0.00;;;;;;;19.46;58.69;102051.84;10535400;28;20531;-61
2021/09/04 15:54:48;;;;;;;0.00;0.00;;;;;;;19.44;59.13;102053.88;10534951;28;20020;-61
2021/09/04 15:59:48;;;;;;;0.10;0.10;;;;;;;19.29;62.33;102051.19;10500052;28;20478;-62
2021/09/04 16:04:49;;;;;;;0.10;0.10;;;;;;;19.16;63.41;102049.13;10492672;28;20032;-62
2021/09/04 16:09:49;;;;;;;0.10;0.10;;;;;;;18.98;62.81;102044.09;10534859;28;20050;-62
2021/09/04 16:14:49;;;;;;;0.10;0.10;;;;;;;18.81;64.67;102047.97;10534437;28;20371;-61
2021/09/04 16:19:50;;;;;;;0.10;0.10;;;;;;;18.71;64.18;102058.19;10534299;28;20431;-62
2021/09/04 16:24:50;;;;;;;0.10;0.10;;;;;;;18.80;65.40;102057.09;10532878;28;20035;-62
2021/09/04 16:29:51;;;;;;;0.10;0.10;;;;;;;18.92;65.09;102054.81;10532939;28;20278;-61
2021/09/04 16:34:52;;;;;;;0.00;0.00;;;;;;;18.99;64.62;102047.63;10533861;28;20265;-61
2021/09/04 16:39:52;;;;;;;0.10;0.10;;;;;;;19.01;65.44;102045.59;10532884;28;20337;-60
2021/09/04 16:44:52;;;;;;;0.10;0.10;;;;;;;18.97;64.13;102052.41;10533530;28;20031;-61
2021/09/04 16:49:53;;;;;;;0.00;0.00;;;;;;;18.95;63.65;102052.56;10506442;28;20275;-59
2021/09/04 16:54:54;;;;;;;0.00;0.00;;;;;;;18.88;64.15;102064.28;10497138;28;20073;-61
2021/09/04 16:59:54;;;;;;;0.00;0.00;;;;;;;18.83;64.35;102066.72;10533351;28;20052;-62
2021/09/04 17:04:56;;;;;;;0.10;0.10;;;;;;;18.76;63.21;102070.16;10533310;28;20071;-62
2021/09/04 17:09:56;;;;;;;0.00;0.00;;;;;;;18.65;64.94;102064.31;10533506;28;20027;-61
2021/09/04 17:14:56;;;;;;;0.00;0.00;;;;;;;18.48;65.53;102064.44;10496532;28;20426;-62
2021/09/04 17:19:57;;;;;;;0.10;0.10;;;;;;;18.42;66.38;102073.25;10491404;28;20082;-61
2021/09/04 17:24:57;;;;;;;0.10;0.10;;;;;;;18.33;68.71;102077.06;10491071;28;20475;-61
2021/09/04 17:29:57;;;;;;;0.08;0.08;;;;;;;18.13;70.11;102083.94;10496906;28;20031;-62
2021/09/04 17:34:58;;;;;;;0.10;0.10;;;;;;;17.91;67.93;102086.41;10505636;28;20020;-62
2021/09/04 17:39:58;;;;;;;0.00;0.00;;;;;;;17.70;69.83;102091.53;10499387;28;20021;-61
2021/09/04 17:44:59;;;;;;;0.10;0.10;;;;;;;17.50;70.65;102091.94;10502408;28;20028;-62
2021/09/04 17:49:59;;;;;;;0.10;0.10;;;;;;;17.38;71.19;102099.56;10498966;28;20031;-61
2021/09/04 17:54:59;;;;;;;0.00;0.00;;;;;;;17.24;72.48;102102.13;10498260;28;20040;-62
2021/09/04 17:59:59;;;;;;;0.10;0.10;;;;;;;17.05;73.41;102120.34;10503606;28;20250;-61
2021/09/04 18:05:00;;;;;;;0.10;0.10;;;;;;;16.81;75.70;102123.03;10506425;28;20062;-61
2021/09/04 18:10:00;;;;;;;0.10;0.10;;;;;;;16.48;77.09;102141.84;10499449;28;20021;-62
2021/09/04 18:15:01;;;;;;;0.10;0.10;;;;;;;16.27;76.76;102137.75;10515459;22;20044;-62
2021/09/04 18:20:03;;;;;;;0.00;0.00;;;;;;;16.03;77.26;102146.59;10526242;28;20028;-62
2021/09/04 18:25:04;;;;;;;0.10;0.10;;;;;;;15.72;77.91;102162.44;10532164;28;20536;-61
2021/09/04 18:30:06;;;;;;;0.10;0.10;;;;;;;15.38;78.84;102175.78;10539729;28;20161;-62
2021/09/04 18:35:07;;;;;;;0.10;0.10;;;;;;;15.08;80.07;102169.03;10531808;28;20030;-62
2021/09/04 18:40:10;;;;;;;0.10;0.10;;;;;;;14.98;81.47;102181.69;10531806;28;20028;-62
2021/09/04 18:45:11;;;;;;;0.10;0.10;;;;;;;14.87;82.16;102193.53;10450817;28;20025;-62
2021/09/04 18:50:12;;;;;;;0.10;0.10;;;;;;;14.85;81.94;102206.25;10466446;28;20123;-62
2021/09/04 18:55:12;;;;;;;0.10;0.10;;;;;;;14.75;82.51;102202.78;10455416;28;20048;-61
2021/09/04 19:00:13;;;;;;;0.10;0.10;;;;;;;14.57;83.85;102211.66;10472011;28;20383;-61
2021/09/04 19:05:13;;;;;;;0.10;0.10;;;;;;;14.46;84.95;102218.06;10478274;28;20075;-60
2021/09/04 19:10:14;;;;;;;0.10;0.10;;;;;;;14.34;85.54;102215.72;10465811;28;20024;-61
2021/09/04 19:15:14;;;;;;;0.10;0.10;;;;;;;14.33;86.89;102220.25;10466366;28;20017;-61
2021/09/04 19:20:14;;;;;;;0.10;0.10;;;;;;;14.40;87.08;102240.13;10473964;28;20400;-61
2021/09/04 19:25:15;;;;;;;0.10;0.10;;;;;;;14.37;87.00;102232.38;10476579;28;20356;-61
2021/09/04 19:30:15;;;;;;;0.10;0.10;;;;;;;14.32;87.50;102244.53;10464049;28;20025;-62
2021/09/04 19:35:16;;;;;;;0.10;0.10;;;;;;;14.20;88.20;102255.44;10473169;28;20009;-62
2021/09/04 19:40:17;;;;;;;0.10;0.10;;;;;;;14.08;88.63;102256.63;10455964;28;20212;-63
2021/09/04 19:45:17;;;;;;;0.10;0.10;;;;;;;14.00;88.28;102257.34;10445390;28;20017;-61
2021/09/04 19:50:18;;;;;;;0.10;0.10;;;;;;;13.93;88.68;102266.13;10461071;28;20506;-60
2021/09/04 19:55:19;;;;;;;0.10;0.10;;;;;;;13.90;89.04;102269.09;10465991;28;20024;-62
2021/09/04 20:00:19;;;;;;;0.10;0.10;;;;;;;13.84;89.58;102280.38;10475108;28;20550;-61
2021/09/04 20:05:20;;;;;;;0.10;0.10;;;;;;;13.71;89.39;102267.31;10459429;28;20020;-62
2021/09/04 20:10:20;;;;;;;0.10;0.10;;;;;;;13.48;88.86;102280.19;10469694;28;20070;-62
2021/09/04 20:15:21;;;;;;;0.07;0.07;;;;;;;13.22;88.95;102280.72;10461507;28;20475;-62
2021/09/04 20:20:21;;;;;;;0.10;0.10;;;;;;;12.99;89.66;102280.16;10455888;28;20099;-62
2021/09/04 20:25:21;;;;;;;0.10;0.10;;;;;;;12.81;90.60;102279.16;10453685;28;20009;-61
2021/09/04 20:30:22;;;;;;;0.10;0.10;;;;;;;12.70;90.76;102288.13;10474267;28;20035;-62
2021/09/04 20:35:32;;;;;;;0.10;0.10;;;;;;;12.60;91.86;102282.75;10487903;28;20258;-62
2021/09/04 20:40:36;;;;;;;0.10;0.10;;;;;;;12.51;91.70;102291.59;10490905;28;20277;-62
2021/09/04 20:45:36;;;;;;;0.10;0.10;;;;;;;12.37;91.31;102287.47;10470402;28;20012;-62
2021/09/04 20:50:36;;;;;;;0.10;0.10;;;;;;;12.26;91.91;102294.75;10464773;28;20024;-62
2021/09/04 20:55:37;;;;;;;0.10;0.10;;;;;;;12.17;93.00;102291.88;10452674;28;20267;-61
2021/09/04 21:00:38;;;;;;;0.10;0.10;;;;;;;12.16;94.21;102292.88;10455919;28;20029;-61
2021/09/04 21:05:38;;;;;;;0.07;0.07;;;;;;;12.15;94.70;102299.19;10456168;28;20032;-62
2021/09/04 21:10:39;;;;;;;0.10;0.10;;;;;;;12.11;94.35;102295.09;10456207;28;20064;-62
2021/09/04 21:15:39;;;;;;;0.00;0.00;;;;;;;12.10;94.72;102300.56;10469472;28;20024;-61
2021/09/04 21:20:40;;;;;;;0.10;0.10;;;;;;;12.05;94.32;102298.31;10467221;28;20476;-62
2021/09/04 21:25:40;;;;;;;0.10;0.10;;;;;;;12.00;94.63;102311.19;10482075;28;20059;-61
2021/09/04 21:30:40;;;;;;;1.90;0.40;;;;;;;11.90;94.54;102302.31;10466799;28;20440;-60
2021/09/04 21:35:40;;;;;;;0.00;0.00;;;;;;;11.79;95.22;102308.53;10479741;28;20028;-61
2021/09/04 21:40:41;;;;;;;0.10;0.10;;;;;;;11.71;95.01;102321.66;10438501;28;20017;-61
2021/09/04 21:45:41;;;;;;;0.10;0.10;;;;;;;11.63;95.97;102316.13;10455430;28;20762;-61
2021/09/04 21:50:41;;;;;;;0.10;0.10;;;;;;;11.59;95.94;102317.38;10472957;28;20448;-61
2021/09/04 21:55:42;;;;;;;0.10;0.10;;;;;;;11.50;95.46;102329.66;10474529;28;20029;-62
2021/09/04 22:00:42;;;;;;;0.10;0.10;;;;;;;11.41;96.11;102325.09;10462673;28;20032;-60
2021/09/04 22:05:43;;;;;;;0.10;0.10;;;;;;;11.34;95.50;102330.09;10456549;28;20025;-61
2021/09/04 22:10:43;;;;;;;0.00;0.00;;;;;;;11.16;95.26;102334.28;10463342;28;20032;-62
2021/09/04 22:15:44;;;;;;;0.10;0.10;;;;;;;11.02;95.95;102336.25;10460542;28;20392;-62
2021/09/04 22:20:44;;;;;;;0.10;0.10;;;;;;;10.95;96.33;102344.88;10465646;28;20032;-61
2021/09/04 22:25:44;;;;;;;0.10;0.10;;;;;;;10.86;96.66;102342.00;10480421;28;20024;-61
2021/09/04 22:30:45;;;;;;;0.10;0.10;;;;;;;10.85;97.47;102342.13;10466850;28;20021;-60
2021/09/04 22:35:46;;;;;;;0.10;0.10;;;;;;;10.83;97.81;102342.25;10475332;28;20074;-60
2021/09/04 22:40:49;;;;;;;0.10;0.10;;;;;;;10.76;96.82;102345.50;10470109;28;20479;-61
2021/09/04 22:45:51;;;;;;;0.13;0.13;;;;;;;10.52;96.03;102351.84;10441160;28;20071;-62
2021/09/04 22:50:51;;;;;;;0.10;0.10;;;;;;;10.36;96.16;102346.03;10441367;28;20074;-61
2021/09/04 22:55:51;;;;;;;0.00;0.00;;;;;;;10.32;96.83;102356.06;10461523;28;20041;-62
2021/09/04 23:00:52;;;;;;;0.10;0.10;;;;;;;10.32;97.78;102355.22;10461700;28;20267;-62